Time;durP1;ratioP1;P1;durP2;ratioP2;P2;SDS_P1;SDS_P2;PMS_P1;PMS_P2;Temp;Humidity;BMP_temperature;BMP_pressure;BME280_temperature;BME280_humidity;BME280_pressure;Samples;Min_cycle;Max_cycle;Signal;HPM_P1;HPM_P2
2021/12/14 00:02:16;;;;;;;51.90;22.70;;;;;;;-1.50;76.05;101575.02;103344;1321;22609;-86
2021/12/14 00:04:44;;;;;;;49.30;22.60;;;;;;;-1.36;76.09;101576.69;103120;1322;23013;-84
2021/12/14 00:07:15;;;;;;;51.40;22.30;;;;;;;-1.36;75.44;101575.14;103095;1321;22551;-84
2021/12/14 00:09:42;;;;;;;53.70;21.90;;;;;;;-1.37;75.34;101575.58;103038;1322;24231;-82
2021/12/14 00:12:38;;;;;;;56.20;23.10;;;;;;;-1.33;75.38;101581.86;102890;1327;25911;-80
2021/12/14 00:15:16;;;;;;;61.00;27.40;;;;;;;-1.34;75.34;101587.87;102829;1323;22574;-81
2021/12/14 00:17:48;;;;;;;57.90;24.00;;;;;;;-1.23;75.64;101583.80;102957;1319;22587;-80
2021/12/14 00:20:28;;;;;;;54.20;23.90;;;;;;;-1.12;75.87;101582.07;102924;1322;22570;-80
2021/12/14 00:25:27;;;;;;;49.80;23.20;;;;;;;-0.93;75.44;101587.60;103096;1323;26054;-78
2021/12/14 00:27:57;;;;;;;43.10;20.40;;;;;;;-0.82;75.14;101591.55;102922;1323;23096;-78
2021/12/14 00:30:25;;;;;;;48.40;21.60;;;;;;;-0.86;74.34;101588.38;103317;1316;22693;-79
2021/12/14 00:32:52;;;;;;;51.30;22.50;;;;;;;-1.02;74.23;101597.16;103394;1318;24215;-79
2021/12/14 00:35:20;;;;;;;47.50;20.40;;;;;;;-1.03;74.48;101602.27;103361;1313;24771;-80
2021/12/14 00:37:51;;;;;;;39.60;20.00;;;;;;;-1.15;73.97;101598.27;103363;1317;23176;-78
2021/12/14 00:40:24;;;;;;;48.70;22.40;;;;;;;-1.25;73.90;101603.09;103611;1317;22593;-77
2021/12/14 00:42:51;;;;;;;37.10;17.10;;;;;;;-1.40;73.79;101603.75;103555;1317;22773;-77
2021/12/14 00:45:20;;;;;;;50.70;22.60;;;;;;;-1.54;73.93;101608.47;103368;1319;26584;-77
2021/12/14 00:47:49;;;;;;;50.80;25.30;;;;;;;-1.58;74.45;101607.05;103093;1320;24427;-84
2021/12/14 00:50:18;;;;;;;39.20;19.20;;;;;;;-1.55;74.48;101609.45;103764;1322;22564;-82
2021/12/14 00:52:47;;;;;;;50.90;22.40;;;;;;;-1.58;74.66;101611.84;103531;1324;24849;-80
2021/12/14 00:55:19;;;;;;;47.70;22.00;;;;;;;-1.49;75.16;101614.10;103002;1324;22655;-76
2021/12/14 00:57:47;;;;;;;53.90;23.20;;;;;;;-1.42;74.83;101622.30;102860;1323;25454;-76
2021/12/14 01:00:19;;;;;;;49.50;24.20;;;;;;;-1.35;74.80;101623.21;102834;1323;22591;-77
2021/12/14 01:02:46;;;;;;;65.60;26.80;;;;;;;-1.32;74.64;101623.06;103135;1320;22603;-78
2021/12/14 01:05:34;;;;;;;50.30;22.20;;;;;;;-1.25;74.38;101616.58;103311;1317;25255;-79
2021/12/14 01:08:05;;;;;;;50.70;23.00;;;;;;;-1.29;74.23;101613.04;103315;1317;23950;-77
2021/12/14 01:11:13;;;;;;;50.50;23.60;;;;;;;-1.24;74.37;101612.47;103609;1317;22597;-80
2021/12/14 01:13:53;;;;;;;36.20;17.20;;;;;;;-1.20;74.01;101603.88;102875;1322;22580;-79
2021/12/14 01:19:19;;;;;;;51.70;22.30;;;;;;;-1.50;73.91;101597.30;102585;1329;23965;-78
2021/12/14 01:27:05;;;;;;;52.40;23.20;;;;;;;-1.54;74.73;101601.05;102233;1331;22587;-78
2021/12/14 01:29:33;;;;;;;55.70;23.70;;;;;;;-1.42;74.46;101597.58;102144;1331;22617;-76
2021/12/14 01:32:02;;;;;;;56.30;26.70;;;;;;;-1.33;74.46;101594.85;102484;1326;22821;-77
2021/12/14 01:34:31;;;;;;;50.20;24.30;;;;;;;-1.21;74.44;101597.64;103044;1322;22593;-76
2021/12/14 01:37:05;;;;;;;44.90;21.70;;;;;;;-1.13;74.19;101596.02;103123;1321;22658;-75
2021/12/14 01:42:11;;;;;;;49.90;24.40;;;;;;;-1.12;73.61;101582.39;102557;1328;22732;-75
2021/12/14 01:44:46;;;;;;;50.60;24.50;;;;;;;-1.07;73.77;101578.88;102614;1324;25384;-76
2021/12/14 01:47:33;;;;;;;51.50;22.80;;;;;;;-1.15;73.01;101582.07;102745;1323;25319;-75
2021/12/14 01:50:16;;;;;;;42.90;21.20;;;;;;;-1.20;73.19;101581.20;102960;1323;24238;-75
2021/12/14 01:53:04;;;;;;;43.20;20.30;;;;;;;-1.18;73.57;101578.06;102972;1323;22577;-79
2021/12/14 01:55:36;;;;;;;41.30;19.80;;;;;;;-1.13;73.68;101576.98;102989;1322;25258;-80
2021/12/14 01:58:06;;;;;;;47.10;22.00;;;;;;;-1.08;73.53;101570.85;103467;1316;24285;-78
2021/12/14 02:00:40;;;;;;;49.30;23.90;;;;;;;-1.01;73.40;101567.48;103346;1316;22573;-79
2021/12/14 02:03:09;;;;;;;53.10;25.20;;;;;;;-0.97;73.10;101560.55;103472;1316;25294;-80
2021/12/14 02:05:41;;;;;;;54.40;24.60;;;;;;;-0.95;73.09;101561.59;103597;1316;23898;-79
2021/12/14 02:08:25;;;;;;;51.60;24.60;;;;;;;-0.87;73.24;101558.23;103761;1316;25512;-81
2021/12/14 02:10:54;;;;;;;53.60;24.90;;;;;;;-0.79;72.91;101557.63;103476;1316;25242;-79
2021/12/14 02:13:32;;;;;;;50.30;24.80;;;;;;;-0.74;72.97;101560.98;103462;1318;22707;-80
2021/12/14 02:16:00;;;;;;;49.00;23.80;;;;;;;-0.69;72.84;101566.80;103515;1316;22623;-78
2021/12/14 02:18:53;;;;;;;46.70;24.10;;;;;;;-0.70;72.62;101564.17;103409;1312;22579;-78
2021/12/14 02:21:21;;;;;;;47.20;23.20;;;;;;;-0.70;72.39;101564.52;103523;1316;22586;-77
2021/12/14 02:23:52;;;;;;;48.00;24.10;;;;;;;-0.67;72.38;101568.63;103747;1316;24196;-76
2021/12/14 02:26:22;;;;;;;45.40;22.70;;;;;;;-0.66;72.42;101570.29;103663;1316;22596;-80
2021/12/14 02:28:50;;;;;;;46.90;23.20;;;;;;;-0.57;72.30;101573.85;103668;1316;24359;-78
2021/12/14 02:31:20;;;;;;;43.20;21.80;;;;;;;-0.52;72.05;101575.21;104792;1316;22636;-76
2021/12/14 02:33:50;;;;;;;58.40;26.10;;;;;;;-0.61;71.12;101575.91;103757;1316;24216;-76
2021/12/14 02:36:22;;;;;;;42.60;20.80;;;;;;;-0.84;70.82;101573.44;103431;1316;24271;-77
2021/12/14 02:39:03;;;;;;;41.90;20.60;;;;;;;-1.10;70.92;101570.55;103712;1316;24243;-80
2021/12/14 02:41:41;;;;;;;49.00;23.60;;;;;;;-1.19;71.74;101565.22;103216;1318;22690;-78
2021/12/14 02:44:09;;;;;;;42.90;22.20;;;;;;;-1.10;72.30;101556.91;103510;1317;22624;-77
2021/12/14 02:46:41;;;;;;;42.80;21.70;;;;;;;-1.04;72.28;101551.39;102691;1324;22607;-76
2021/12/14 02:49:12;;;;;;;44.80;21.50;;;;;;;-0.98;72.11;101553.46;102963;1322;24276;-77
2021/12/14 02:51:46;;;;;;;45.80;21.50;;;;;;;-0.88;72.24;101552.95;102870;1324;25515;-76
2021/12/14 02:54:18;;;;;;;43.10;22.80;;;;;;;-0.87;71.72;101547.85;102855;1324;25122;-76
2021/12/14 02:57:07;;;;;;;43.80;22.00;;;;;;;-0.82;71.93;101546.04;102891;1324;22680;-77
2021/12/14 02:59:37;;;;;;;45.50;21.80;;;;;;;-0.75;71.76;101549.20;102907;1324;22545;-77
2021/12/14 03:02:09;;;;;;;44.50;21.90;;;;;;;-0.70;71.69;101548.27;102804;1324;23678;-77
2021/12/14 03:04:43;;;;;;;44.70;23.10;;;;;;;-0.73;71.33;101555.33;102256;1324;22588;-77
2021/12/14 03:07:12;;;;;;;38.60;19.70;;;;;;;-0.72;71.41;101550.52;102939;1326;22609;-77
2021/12/14 03:10:07;;;;;;;42.00;21.40;;;;;;;-0.92;70.58;101553.43;102689;1326;22579;-77
2021/12/14 03:12:41;;;;;;;39.00;18.40;;;;;;;-1.08;71.04;101563.29;102822;1321;22588;-77
2021/12/14 03:15:16;;;;;;;39.40;18.80;;;;;;;-1.35;70.53;101563.23;102904;1325;23047;-77
2021/12/14 03:17:47;;;;;;;40.90;20.20;;;;;;;-1.57;71.02;101562.86;103102;1323;25310;-78
2021/12/14 03:20:19;;;;;;;39.20;19.50;;;;;;;-1.65;71.48;101560.83;103447;1323;25242;-78
2021/12/14 03:23:02;;;;;;;41.90;21.10;;;;;;;-1.69;71.93;101561.97;103091;1316;22571;-81
2021/12/14 03:25:38;;;;;;;41.60;20.50;;;;;;;-1.63;72.44;101564.41;103577;1316;22803;-78
2021/12/14 03:28:07;;;;;;;43.60;20.90;;;;;;;-1.55;72.62;101562.50;104807;1314;22617;-78
2021/12/14 03:30:42;;;;;;;44.80;22.40;;;;;;;-1.51;72.43;101554.24;105786;1311;22579;-78
2021/12/14 03:33:17;;;;;;;47.20;21.60;;;;;;;-1.46;72.09;101552.08;106267;1316;22699;-77
2021/12/14 03:35:52;;;;;;;42.90;21.30;;;;;;;-1.54;71.91;101547.47;104458;1316;22588;-77
2021/12/14 03:38:21;;;;;;;49.20;24.00;;;;;;;-1.51;72.08;101546.98;104062;1315;26017;-76
2021/12/14 03:41:07;;;;;;;43.90;21.50;;;;;;;-1.48;71.77;101548.84;104551;1316;25362;-76
2021/12/14 03:43:36;;;;;;;41.00;21.10;;;;;;;-1.63;71.40;101543.17;104462;1314;25248;-78
2021/12/14 03:46:07;;;;;;;41.00;21.20;;;;;;;-1.72;71.57;101540.73;103482;1316;22583;-77
2021/12/14 03:48:37;;;;;;;42.80;21.00;;;;;;;-1.77;71.80;101541.80;103675;1316;23300;-77
2021/12/14 03:51:04;;;;;;;43.70;21.80;;;;;;;-1.72;72.31;101541.92;103669;1313;22637;-77
2021/12/14 03:53:32;;;;;;;45.60;22.20;;;;;;;-1.61;72.54;101555.52;103587;1316;22574;-79
2021/12/14 03:56:04;;;;;;;38.70;20.20;;;;;;;-1.56;72.39;101547.21;103459;1316;23985;-80
2021/12/14 03:58:36;;;;;;;42.00;21.60;;;;;;;-1.52;71.96;101548.14;103116;1322;22626;-78
2021/12/14 04:01:19;;;;;;;42.80;21.70;;;;;;;-1.51;71.91;101548.39;103167;1322;25442;-78
2021/12/14 04:03:54;;;;;;;43.50;21.50;;;;;;;-1.48;71.77;101549.08;102581;1327;22818;-75
2021/12/14 04:06:27;;;;;;;46.10;22.20;;;;;;;-1.58;71.43;101537.40;102671;1325;25417;-76
2021/12/14 04:08:55;;;;;;;39.50;20.90;;;;;;;-1.54;71.73;101536.56;102624;1327;26607;-76
2021/12/14 04:11:22;;;;;;;38.90;19.60;;;;;;;-1.52;71.66;101535.52;102385;1327;25350;-75
2021/12/14 04:13:54;;;;;;;38.70;18.50;;;;;;;-1.52;71.61;101531.86;101831;1333;167328;-75
2021/12/14 04:16:29;;;;;;;41.70;20.30;;;;;;;-1.55;71.39;101531.34;102181;1327;25244;-81
2021/12/14 04:19:03;;;;;;;40.50;21.30;;;;;;;-1.52;71.79;101535.83;102615;1324;24473;-85
2021/12/14 04:21:34;;;;;;;42.40;19.60;;;;;;;-1.54;71.40;101539.38;102631;1322;22711;-81
2021/12/14 04:24:01;;;;;;;39.50;19.90;;;;;;;-1.55;71.44;101538.46;103104;1322;22767;-81
2021/12/14 04:26:29;;;;;;;35.50;19.00;;;;;;;-1.51;71.51;101537.84;103041;1317;25680;-78
2021/12/14 04:28:59;;;;;;;30.70;17.40;;;;;;;-1.50;71.38;101541.02;103334;1322;22611;-79
2021/12/14 04:31:36;;;;;;;36.20;19.10;;;;;;;-1.54;70.78;101544.36;103356;1316;25339;-81
2021/12/14 04:34:05;;;;;;;46.00;22.80;;;;;;;-1.65;70.87;101533.00;103479;1313;25434;-77
2021/12/14 04:36:33;;;;;;;40.00;19.60;;;;;;;-1.62;71.25;101524.20;103629;1310;22803;-79
2021/12/14 04:39:30;;;;;;;39.50;20.10;;;;;;;-1.55;71.57;101526.84;103673;1316;24362;-78
2021/12/14 04:53:39;;;;;;;32.40;17.40;;;;;;;-1.70;70.54;101532.19;104146;1318;22557;-80
2021/12/14 04:56:10;;;;;;;33.10;17.70;;;;;;;-1.74;70.73;101533.52;104096;1320;24477;-82
2021/12/14 04:58:46;;;;;;;37.70;19.30;;;;;;;-1.74;70.90;101530.23;103103;1320;25230;-76
2021/12/14 05:01:16;;;;;;;36.50;18.30;;;;;;;-1.69;71.06;101531.91;103324;1319;23098;-76
2021/12/14 05:03:59;;;;;;;30.70;17.70;;;;;;;-1.68;70.94;101534.90;103084;1320;22685;-76
2021/12/14 05:06:44;;;;;;;25.50;15.40;;;;;;;-1.69;70.78;101536.61;103357;1319;25487;-80
2021/12/14 05:09:26;;;;;;;40.70;20.80;;;;;;;-1.89;70.17;101543.69;103416;1316;22619;-75
2021/12/14 05:12:15;;;;;;;37.20;18.60;;;;;;;-1.99;70.87;101540.00;103619;1316;24779;-79
2021/12/14 05:14:50;;;;;;;34.40;19.00;;;;;;;-2.01;71.24;101532.79;103398;1316;22617;-80
2021/12/14 05:17:24;;;;;;;34.50;19.10;;;;;;;-1.96;71.31;101534.47;103429;1319;22604;-77
2021/12/14 05:19:53;;;;;;;35.80;19.10;;;;;;;-1.90;71.47;101534.99;103960;1316;22746;-77
2021/12/14 05:22:26;;;;;;;30.90;16.80;;;;;;;-1.82;71.30;101543.06;103867;1313;22584;-80
2021/12/14 05:25:02;;;;;;;31.60;17.20;;;;;;;-1.84;71.12;101539.84;104592;1316;22574;-78
2021/12/14 05:27:43;;;;;;;37.10;19.30;;;;;;;-1.82;71.12;101537.20;104016;1316;25233;-79
2021/12/14 05:30:24;;;;;;;34.00;17.80;;;;;;;-1.85;70.88;101531.67;103685;1316;22823;-78
2021/12/14 05:33:08;;;;;;;33.40;18.20;;;;;;;-1.88;70.88;101525.80;105503;1316;22613;-76
2021/12/14 05:35:38;;;;;;;34.40;19.90;;;;;;;-1.94;70.83;101530.77;104811;1309;22597;-77
2021/12/14 05:38:17;;;;;;;31.90;19.30;;;;;;;-1.96;70.80;101532.92;103354;1316;22561;-78
2021/12/14 05:43:27;;;;;;;32.80;18.40;;;;;;;-1.79;71.21;101528.08;106436;1313;22626;-76
2021/12/14 05:46:21;;;;;;;32.90;18.80;;;;;;;-1.68;71.07;101526.11;106367;1318;22722;-74
2021/12/14 05:49:11;;;;;;;27.30;16.10;;;;;;;-1.69;70.86;101526.75;106892;1312;22600;-80
2021/12/14 05:51:40;;;;;;;30.20;16.30;;;;;;;-1.68;70.97;101521.59;106935;1316;22772;-75
2021/12/14 05:54:08;;;;;;;31.70;16.90;;;;;;;-1.61;71.17;101524.61;106693;1310;22546;-78
2021/12/14 05:56:36;;;;;;;31.00;16.40;;;;;;;-1.58;70.90;101524.76;104968;1316;26569;-79
2021/12/14 05:59:03;;;;;;;31.60;17.90;;;;;;;-1.54;70.99;101520.04;104532;1317;22559;-80
2021/12/14 06:01:33;;;;;;;31.10;16.70;;;;;;;-1.47;70.80;101514.33;104248;1317;22524;-79
2021/12/14 06:04:09;;;;;;;28.60;16.80;;;;;;;-1.42;70.76;101519.35;106456;1316;22593;-78
2021/12/14 06:06:41;;;;;;;35.50;19.00;;;;;;;-1.48;70.07;101525.87;106617;1317;22926;-78
2021/12/14 06:09:32;;;;;;;34.50;18.10;;;;;;;-1.59;70.22;101530.44;106321;1317;23498;-79
2021/12/14 06:12:10;;;;;;;27.30;15.00;;;;;;;-1.54;70.57;101530.74;106544;1317;22598;-78
2021/12/14 06:14:43;;;;;;;34.90;17.50;;;;;;;-1.59;70.05;101525.59;106086;1313;22709;-75
2021/12/14 06:17:12;;;;;;;33.70;19.90;;;;;;;-1.64;70.33;101517.89;105357;1317;22582;-77
2021/12/14 06:19:42;;;;;;;32.30;18.30;;;;;;;-1.54;70.68;101516.37;103930;1316;22586;-80
2021/12/14 06:22:15;;;;;;;36.50;19.60;;;;;;;-1.43;70.80;101510.79;103475;1318;25260;-79
2021/12/14 06:24:47;;;;;;;35.90;18.60;;;;;;;-1.33;70.52;101507.17;103758;1317;22542;-79
2021/12/14 06:27:19;;;;;;;33.40;18.50;;;;;;;-1.33;70.31;101505.11;104501;1317;22711;-78
2021/12/14 06:30:03;;;;;;;32.50;18.80;;;;;;;-1.38;70.20;101505.22;103460;1323;24386;-79
2021/12/14 06:32:40;;;;;;;25.70;15.10;;;;;;;-1.38;70.24;101506.09;103194;1323;22731;-82
2021/12/14 06:35:09;;;;;;;;;;;;;;;-1.54;69.57;101500.30;103039;1323;22556;-86
2021/12/14 06:38:05;;;;;;;23.30;12.80;;;;;;;-1.64;70.33;101500.95;103222;1323;22579;-77
2021/12/14 06:40:35;;;;;;;23.40;13.20;;;;;;;-1.79;69.86;101505.27;103278;1322;25377;-80
2021/12/14 06:43:10;;;;;;;27.30;16.10;;;;;;;-2.02;69.88;101505.11;103194;1315;22667;-80
2021/12/14 06:45:43;;;;;;;28.80;17.20;;;;;;;-2.18;70.25;101504.16;102854;1323;26058;-79
2021/12/14 06:48:16;;;;;;;32.20;19.10;;;;;;;-2.29;70.71;101497.48;103045;1318;23950;-79
2021/12/14 06:50:48;;;;;;;31.50;18.10;;;;;;;-2.23;71.06;101496.96;103552;1317;22593;-79
2021/12/14 06:53:30;;;;;;;30.20;16.80;;;;;;;-2.18;71.28;101493.14;103255;1318;22724;-78
2021/12/14 06:56:19;;;;;;;32.30;18.60;;;;;;;-2.19;70.96;101493.05;103582;1310;26511;-79
2021/12/14 06:59:11;;;;;;;34.80;18.50;;;;;;;-2.19;71.29;101496.00;103322;1317;24215;-78
2021/12/14 07:02:08;;;;;;;28.70;16.40;;;;;;;-2.12;71.51;101496.61;103455;1316;23237;-78
2021/12/14 07:04:52;;;;;;;33.60;18.20;;;;;;;-2.04;71.32;101502.07;103394;1317;22593;-79
2021/12/14 07:07:26;;;;;;;36.10;19.80;;;;;;;-2.17;70.67;101500.91;103519;1316;22578;-79
2021/12/14 07:09:59;;;;;;;31.10;18.50;;;;;;;-2.22;71.35;101494.08;103513;1316;22568;-79
2021/12/14 07:12:31;;;;;;;34.20;19.60;;;;;;;-2.10;71.66;101491.02;103522;1317;22619;-77
2021/12/14 07:15:00;;;;;;;32.80;18.70;;;;;;;-1.96;71.60;101486.29;103493;1316;22558;-78
2021/12/14 07:17:40;;;;;;;31.50;18.50;;;;;;;-1.87;71.37;101485.48;103676;1315;24207;-79
2021/12/14 07:20:13;;;;;;;34.40;20.80;;;;;;;-1.77;71.30;101487.26;103512;1317;24237;-78
2021/12/14 07:22:51;;;;;;;51.00;23.20;;;;;;;-1.66;71.35;101488.74;103568;1315;25354;-80
2021/12/14 07:25:25;;;;;;;37.20;20.90;;;;;;;-1.60;70.81;101487.19;103548;1315;22557;-79
2021/12/14 07:28:14;;;;;;;39.30;22.70;;;;;;;-1.58;70.58;101486.06;103721;1316;23973;-79
2021/12/14 07:30:45;;;;;;;39.50;23.00;;;;;;;-1.61;70.65;101483.34;103672;1315;22586;-81
2021/12/14 07:33:14;;;;;;;35.60;21.00;;;;;;;-1.59;70.64;101487.44;103481;1316;22592;-79
2021/12/14 07:36:19;;;;;;;36.30;20.20;;;;;;;-1.54;70.89;101487.20;103670;1316;22657;-79
2021/12/14 07:38:55;;;;;;;38.90;20.50;;;;;;;-1.45;70.92;101483.92;104859;1316;22573;-77
2021/12/14 07:41:42;;;;;;;35.70;21.00;;;;;;;-1.40;70.72;101483.67;104901;1316;22808;-80
2021/12/14 07:44:23;;;;;;;40.60;22.20;;;;;;;-1.29;70.77;101479.47;103621;1315;22841;-78
2021/12/14 07:47:09;;;;;;;41.60;20.50;;;;;;;-1.19;70.77;101479.63;103710;1317;22552;-78
2021/12/14 07:49:43;;;;;;;35.90;20.10;;;;;;;-1.14;70.48;101478.38;104314;1315;22757;-77
2021/12/14 07:52:15;;;;;;;39.70;22.80;;;;;;;-1.07;70.55;101475.64;103728;1316;22774;-78
2021/12/14 07:54:55;;;;;;;33.60;18.30;;;;;;;-0.96;70.54;101476.40;103768;1313;25460;-80
2021/12/14 07:57:26;;;;;;;38.30;21.30;;;;;;;-1.01;69.94;101475.45;103511;1316;22579;-79
2021/12/14 08:00:00;;;;;;;43.00;23.40;;;;;;;-0.98;70.36;101482.70;103830;1316;22556;-79
2021/12/14 08:02:34;;;;;;;38.40;19.60;;;;;;;-0.90;70.48;101481.42;103720;1316;22724;-78
2021/12/14 08:05:14;;;;;;;38.40;20.50;;;;;;;-0.86;70.26;101484.95;103577;1316;24333;-80
2021/12/14 08:08:21;;;;;;;38.30;21.40;;;;;;;-0.78;70.34;101485.01;103498;1310;22572;-80
2021/12/14 08:11:16;;;;;;;37.10;22.00;;;;;;;-0.69;70.40;101484.81;103504;1316;24000;-79
2021/12/14 08:13:47;;;;;;;31.50;17.60;;;;;;;-0.68;70.23;101483.30;103670;1316;25614;-79
2021/12/14 08:16:16;;;;;;;40.00;20.70;;;;;;;-0.71;70.04;101491.27;103854;1315;22890;-80
2021/12/14 08:18:45;;;;;;;35.40;20.00;;;;;;;-0.73;70.05;101495.28;104058;1315;22589;-78
2021/12/14 08:21:20;;;;;;;32.70;19.70;;;;;;;-0.70;70.30;101501.17;103512;1322;22786;-79
2021/12/14 08:23:56;;;;;;;46.00;21.90;;;;;;;-0.68;70.20;101497.66;103660;1322;25245;-78
2021/12/14 08:26:27;;;;;;;34.40;20.00;;;;;;;-0.62;70.34;101497.30;103313;1321;23986;-78
2021/12/14 08:29:13;;;;;;;37.60;19.80;;;;;;;-0.58;70.32;101494.02;103540;1322;24198;-77
2021/12/14 08:31:49;;;;;;;33.40;18.10;;;;;;;-0.55;70.02;101498.52;103683;1321;25996;-78
2021/12/14 08:34:32;;;;;;;41.80;21.20;;;;;;;-0.65;69.77;101495.92;103499;1320;25291;-79
2021/12/14 08:37:29;;;;;;;36.10;20.40;;;;;;;-0.62;70.08;101497.13;103267;1316;22590;-80
2021/12/14 08:40:02;;;;;;;39.60;21.30;;;;;;;-0.59;70.03;101501.44;103591;1316;24218;-78
2021/12/14 08:42:51;;;;;;;48.60;25.10;;;;;;;-0.67;69.70;101497.05;103911;1315;23562;-79
2021/12/14 08:45:26;;;;;;;47.50;23.90;;;;;;;-0.67;70.33;101500.27;103984;1315;23117;-77
2021/12/14 08:47:57;;;;;;;39.80;20.30;;;;;;;-0.57;70.49;101501.02;104132;1314;22557;-78
2021/12/14 08:50:24;;;;;;;41.90;20.60;;;;;;;-0.58;70.26;101501.31;103975;1315;24196;-78
2021/12/14 08:52:52;;;;;;;39.50;21.00;;;;;;;-0.62;70.23;101502.64;103843;1316;23638;-79
2021/12/14 08:55:22;;;;;;;46.80;23.30;;;;;;;-0.70;70.08;101491.68;103857;1316;24196;-77
2021/12/14 08:57:49;;;;;;;43.10;22.60;;;;;;;-0.75;70.68;101485.02;103741;1316;24223;-79
2021/12/14 09:00:24;;;;;;;39.60;20.30;;;;;;;-0.64;71.05;101486.45;103738;1316;24202;-79
2021/12/14 09:02:58;;;;;;;41.30;21.70;;;;;;;-0.52;70.97;101487.45;103193;1322;22576;-80
2021/12/14 09:05:34;;;;;;;40.20;21.20;;;;;;;-0.48;70.85;101480.23;103238;1322;24293;-79
2021/12/14 09:08:02;;;;;;;44.70;22.00;;;;;;;-0.42;70.81;101482.44;103229;1322;25443;-81
2021/12/14 09:10:33;;;;;;;39.90;20.90;;;;;;;-0.42;70.68;101479.64;103176;1322;22699;-79
2021/12/14 09:13:06;;;;;;;38.20;21.60;;;;;;;-0.38;70.94;101475.91;102909;1322;24115;-78
2021/12/14 09:15:39;;;;;;;39.20;20.60;;;;;;;-0.31;70.93;101471.91;103226;1322;23282;-77
2021/12/14 09:18:08;;;;;;;48.60;22.90;;;;;;;-0.33;70.44;101468.55;102947;1322;22533;-78
2021/12/14 09:20:41;;;;;;;41.00;21.90;;;;;;;-0.49;70.31;101458.84;103375;1316;22630;-79
2021/12/14 09:23:16;;;;;;;42.10;22.70;;;;;;;-0.48;70.98;101458.92;103784;1316;23939;-78
2021/12/14 09:25:45;;;;;;;42.40;22.50;;;;;;;-0.44;70.73;101463.13;104789;1319;22558;-77
2021/12/14 09:28:13;;;;;;;42.00;21.40;;;;;;;-0.44;70.91;101457.93;104890;1318;22617;-77
2021/12/14 09:30:45;;;;;;;42.40;22.20;;;;;;;-0.36;71.23;101453.14;104601;1322;23927;-77
2021/12/14 09:33:16;;;;;;;41.50;20.60;;;;;;;-0.25;71.20;101443.86;104423;1321;23035;-78
2021/12/14 09:35:47;;;;;;;39.70;19.20;;;;;;;-0.31;70.51;101446.67;104783;1325;22867;-77
2021/12/14 09:38:18;;;;;;;49.70;23.00;;;;;;;-0.40;70.72;101448.80;104341;1327;22595;-76
2021/12/14 09:40:51;;;;;;;42.00;23.40;;;;;;;-0.36;70.91;101444.33;103978;1322;22831;-78
2021/12/14 09:43:22;;;;;;;40.30;20.60;;;;;;;-0.28;71.15;101441.78;103899;1324;22651;-77
2021/12/14 09:45:53;;;;;;;41.80;21.70;;;;;;;-0.18;71.15;101441.05;103744;1323;25223;-78
2021/12/14 09:48:28;;;;;;;37.80;20.40;;;;;;;-0.10;71.13;101439.61;104025;1321;24286;-77
2021/12/14 09:51:02;;;;;;;39.20;21.50;;;;;;;-0.06;70.98;101439.98;103557;1324;22599;-77
2021/12/14 09:53:30;;;;;;;40.60;21.10;;;;;;;-0.05;71.01;101438.63;104064;1317;22617;-77
2021/12/14 09:55:58;;;;;;;35.80;19.50;;;;;;;0.00;71.13;101434.73;104606;1323;22671;-77
2021/12/14 09:58:34;;;;;;;34.60;18.40;;;;;;;0.10;71.28;101436.45;103466;1322;24161;-80
2021/12/14 10:01:13;;;;;;;31.00;17.40;;;;;;;0.18;71.19;101435.11;103233;1323;22857;-80
2021/12/14 10:03:43;;;;;;;39.40;18.60;;;;;;;0.03;70.43;101433.33;104189;1324;23078;-79
2021/12/14 10:06:15;;;;;;;45.50;23.40;;;;;;;-0.15;70.65;101434.48;103357;1323;22593;-81
2021/12/14 10:08:48;;;;;;;40.10;20.70;;;;;;;-0.20;71.09;101431.27;103339;1315;25609;-81
2021/12/14 10:11:26;;;;;;;38.80;21.90;;;;;;;-0.09;71.88;101431.15;103766;1316;22869;-77
2021/12/14 10:13:57;;;;;;;40.30;21.30;;;;;;;0.07;71.97;101430.74;104272;1316;23294;-78
2021/12/14 10:16:24;;;;;;;40.30;22.00;;;;;;;0.17;71.81;101425.17;103848;1315;24243;-78
2021/12/14 10:18:56;;;;;;;46.90;21.80;;;;;;;0.21;71.76;101420.73;103497;1316;25314;-78
2021/12/14 10:21:49;;;;;;;43.70;21.00;;;;;;;0.31;71.75;101418.06;103852;1315;24273;-81
2021/12/14 10:24:17;;;;;;;44.00;21.80;;;;;;;0.35;71.43;101420.37;104143;1316;23931;-79
2021/12/14 10:26:51;;;;;;;37.80;21.20;;;;;;;0.29;71.08;101420.03;103742;1316;23945;-80
2021/12/14 10:29:19;;;;;;;48.70;24.80;;;;;;;0.16;71.22;101423.25;103871;1316;26505;-79
2021/12/14 10:31:59;;;;;;;44.70;23.50;;;;;;;0.16;71.82;101416.10;103879;1316;23200;-78
2021/12/14 10:34:31;;;;;;;38.60;21.20;;;;;;;0.25;72.04;101411.52;103827;1315;22640;-79
2021/12/14 10:37:21;;;;;;;34.70;18.10;;;;;;;0.33;71.94;101404.67;103617;1315;23997;-78
2021/12/14 10:45:28;;;;;;;;;;;;;;;0.43;72.16;101398.89;103173;1322;22554;-78
2021/12/14 10:47:57;;;;;;;43.60;22.30;;;;;;;0.51;72.11;101394.25;103185;1322;25237;-78
2021/12/14 10:50:31;;;;;;;45.40;21.40;;;;;;;0.60;72.13;101390.69;103033;1322;22667;-80
2021/12/14 10:53:01;;;;;;;47.20;25.00;;;;;;;0.61;71.71;101395.75;103055;1322;24247;-79
2021/12/14 10:55:35;;;;;;;44.60;23.60;;;;;;;0.62;71.84;101391.63;103032;1322;24272;-78
2021/12/14 10:58:07;;;;;;;44.80;22.60;;;;;;;0.66;71.89;101390.46;103303;1316;23991;-78
2021/12/14 11:00:44;;;;;;;36.60;21.10;;;;;;;0.71;71.80;101389.83;103553;1316;22644;-78
2021/12/14 11:03:16;;;;;;;43.80;23.10;;;;;;;0.74;71.74;101387.35;103724;1315;25364;-78
2021/12/14 11:05:51;;;;;;;50.00;26.00;;;;;;;0.72;71.48;101381.01;103609;1316;22678;-79
2021/12/14 11:11:19;;;;;;;54.70;24.40;;;;;;;0.70;71.22;101385.94;103506;1315;25262;-79
2021/12/14 11:13:53;;;;;;;46.30;23.10;;;;;;;0.60;71.53;101379.93;103773;1316;22689;-79
2021/12/14 11:19:16;;;;;;;46.20;23.20;;;;;;;0.58;71.59;101379.14;103668;1313;24214;-78
2021/12/14 11:21:44;;;;;;;41.20;20.10;;;;;;;0.62;72.11;101381.41;103546;1316;23500;-80
2021/12/14 11:24:11;;;;;;;42.80;22.20;;;;;;;0.66;71.92;101383.67;104030;1316;22585;-76
2021/12/14 11:26:39;;;;;;;43.40;23.20;;;;;;;0.70;71.93;101380.23;103710;1316;24212;-78
2021/12/14 11:29:10;;;;;;;46.90;23.80;;;;;;;0.72;71.86;101377.21;103859;1313;25658;-78
2021/12/14 11:31:51;;;;;;;49.40;26.10;;;;;;;0.74;71.64;101375.55;103925;1316;22719;-78
2021/12/14 11:34:35;;;;;;;50.70;26.80;;;;;;;0.77;71.74;101371.54;105454;1310;22679;-79
2021/12/14 11:37:08;;;;;;;49.10;25.50;;;;;;;0.86;71.80;101364.14;103261;1322;25236;-79
2021/12/14 11:39:39;;;;;;;47.40;24.70;;;;;;;0.98;71.72;101366.77;103239;1322;25245;-78
2021/12/14 11:42:11;;;;;;;45.00;24.20;;;;;;;1.07;71.43;101370.44;103297;1322;22600;-80
2021/12/14 11:44:43;;;;;;;48.50;24.90;;;;;;;1.12;71.25;101376.73;103282;1322;22564;-79
2021/12/14 11:49:57;;;;;;;51.40;26.80;;;;;;;1.14;71.32;101372.34;104075;1322;22578;-77
2021/12/14 11:53:02;;;;;;;57.40;27.90;;;;;;;1.16;71.08;101367.41;103149;1321;25000;-78
2021/12/14 11:55:41;;;;;;;47.50;25.80;;;;;;;1.17;71.09;101363.98;103082;1316;24236;-77
2021/12/14 11:58:17;;;;;;;47.50;25.50;;;;;;;1.14;71.08;101367.13;103648;1316;25444;-79
2021/12/14 12:00:50;;;;;;;49.20;25.50;;;;;;;1.15;71.00;101355.23;103611;1316;25345;-80
2021/12/14 12:03:26;;;;;;;59.50;29.50;;;;;;;1.07;70.74;101353.48;103648;1315;22924;-79
2021/12/14 12:06:14;;;;;;;60.50;29.60;;;;;;;0.89;70.75;101352.33;104771;1315;22582;-78
2021/12/14 12:11:41;;;;;;;54.50;27.80;;;;;;;0.96;71.61;101353.30;103707;1315;22923;-79
2021/12/14 12:14:41;;;;;;;55.00;25.10;;;;;;;1.07;71.54;101347.39;103421;1316;186458;-78
2021/12/14 12:17:27;;;;;;;45.90;23.80;;;;;;;1.07;70.97;101358.18;103729;1316;22530;-78
2021/12/14 12:20:19;;;;;;;57.00;28.70;;;;;;;0.99;71.23;101356.60;103756;1315;24310;-79
2021/12/14 12:23:07;;;;;;;53.70;27.40;;;;;;;0.98;71.36;101353.45;103772;1315;22672;-80
2021/12/14 12:25:38;;;;;;;51.60;26.80;;;;;;;1.02;71.57;101350.10;103584;1316;22632;-79